createdAt,value
2018-02-10T00:00:12.505Z,85.70
2018-02-10T00:02:40.096Z,85.54
2018-02-10T00:05:08.431Z,85.55
2018-02-10T00:07:37.717Z,85.55
2018-02-10T00:10:06.212Z,85.64
2018-02-10T00:12:35.010Z,85.55
2018-02-10T00:15:02.791Z,85.19
2018-02-10T00:17:31.376Z,84.66
2018-02-10T00:20:01.398Z,85.49
2018-02-10T00:22:38.095Z,86.82
2018-02-10T00:25:05.850Z,85.87
2018-02-10T00:27:33.377Z,85.47
2018-02-10T00:30:00.954Z,85.35
2018-02-10T00:32:28.483Z,85.55
2018-02-10T00:34:56.059Z,85.20
2018-02-10T00:37:23.586Z,85.04
2018-02-10T00:39:51.167Z,85.04
2018-02-10T00:42:18.693Z,85.24
2018-02-10T00:44:46.245Z,85.41
2018-02-10T00:47:13.797Z,85.16
2018-02-10T00:49:41.399Z,84.65
2018-02-10T00:52:08.926Z,85.18
2018-02-10T00:54:36.451Z,84.86
2018-02-10T00:57:04.031Z,84.52
2018-02-10T00:59:31.556Z,84.20
2018-02-10T01:01:59.108Z,84.14
2018-02-10T01:04:26.659Z,86.22
2018-02-10T01:06:54.215Z,85.85
2018-02-10T01:09:21.745Z,85.89
2018-02-10T01:11:49.325Z,85.08
2018-02-10T01:14:16.874Z,85.49
2018-02-10T01:16:44.450Z,85.54
2018-02-10T01:19:12.673Z,85.31
2018-02-10T01:21:40.202Z,85.83
2018-02-10T01:24:07.806Z,85.68
2018-02-10T01:26:35.335Z,84.94
2018-02-10T01:29:02.884Z,85.11
2018-02-10T01:31:30.412Z,86.98
2018-02-10T01:33:57.962Z,87.05
2018-02-10T01:36:25.522Z,86.59
2018-02-10T01:38:53.094Z,86.34
2018-02-10T01:41:20.620Z,86.25
2018-02-10T01:43:48.175Z,85.50
2018-02-10T01:46:15.698Z,87.26
2018-02-10T01:48:43.227Z,86.73
2018-02-10T01:51:10.893Z,85.80
2018-02-10T01:53:38.406Z,86.56
2018-02-10T01:56:05.986Z,86.98
2018-02-10T01:58:33.511Z,86.69
2018-02-10T02:01:01.078Z,86.97
2018-02-10T02:03:28.614Z,87.78
2018-02-10T02:05:56.244Z,86.47
2018-02-10T02:08:23.769Z,86.38
2018-02-10T02:10:51.299Z,86.75
2018-02-10T02:13:18.874Z,86.01
2018-02-10T02:15:46.403Z,85.75
2018-02-10T02:18:13.953Z,85.44
2018-02-10T02:20:41.482Z,87.33
2018-02-10T02:23:09.057Z,86.65
2018-02-10T02:25:36.616Z,86.95
2018-02-10T02:28:04.162Z,87.57
2018-02-10T02:30:31.689Z,87.36
2018-02-10T02:32:59.265Z,87.11
2018-02-10T02:35:26.793Z,87.61
2018-02-10T02:37:54.323Z,87.36
2018-02-10T02:40:21.874Z,87.39
2018-02-10T02:42:49.399Z,87.30
2018-02-10T02:45:16.979Z,86.89
2018-02-10T02:47:44.507Z,87.62
2018-02-10T02:50:13.028Z,87.36
2018-02-10T02:52:40.588Z,88.18
2018-02-10T02:55:08.139Z,88.00
2018-02-10T02:57:35.659Z,87.97
2018-02-10T03:00:03.216Z,88.17
2018-02-10T03:02:30.813Z,87.97
2018-02-10T03:04:58.366Z,88.33
2018-02-10T03:07:25.900Z,88.21
2018-02-10T03:09:53.424Z,88.96
2018-02-10T03:12:20.975Z,88.82
2018-02-10T03:14:48.480Z,88.95
2018-02-10T03:17:16.051Z,89.01
2018-02-10T03:19:43.639Z,88.83
2018-02-10T03:22:11.215Z,89.03
2018-02-10T03:24:38.738Z,89.05
2018-02-10T03:27:06.316Z,89.01
2018-02-10T03:29:33.843Z,88.65
2018-02-10T03:32:01.395Z,89.11
2018-02-10T03:34:28.953Z,89.87
2018-02-10T03:36:56.579Z,89.74
2018-02-10T03:39:24.098Z,89.56
2018-02-10T03:41:51.867Z,89.86
2018-02-10T03:44:19.558Z,90.00
2018-02-10T03:46:47.075Z,90.13
2018-02-10T03:49:14.639Z,88.75
2018-02-10T03:51:42.217Z,89.00
2018-02-10T03:54:09.766Z,88.61
2018-02-10T03:56:37.299Z,88.09
2018-02-10T03:59:04.847Z,88.11
2018-02-10T04:01:32.472Z,89.13
2018-02-10T04:04:00.125Z,90.34
2018-02-10T04:06:27.677Z,90.28
2018-02-10T04:08:55.208Z,88.60
2018-02-10T04:11:22.754Z,88.10
2018-02-10T04:13:50.283Z,87.84
2018-02-10T04:16:17.842Z,88.69
2018-02-10T04:18:45.388Z,89.62
2018-02-10T04:21:13.519Z,88.92
2018-02-10T04:23:41.038Z,87.85
2018-02-10T04:26:08.594Z,88.77
2018-02-10T04:28:36.118Z,90.38
2018-02-10T04:31:03.674Z,89.76
2018-02-10T04:33:31.226Z,89.72
2018-02-10T04:35:58.780Z,90.02
2018-02-10T04:38:26.302Z,89.51
2018-02-10T04:40:53.825Z,89.38
2018-02-10T04:43:21.379Z,89.65
2018-02-10T04:45:48.891Z,90.09
2018-02-10T04:48:16.443Z,90.22
2018-02-10T04:50:43.959Z,88.42
2018-02-10T04:53:11.621Z,88.65
2018-02-10T04:55:39.146Z,89.37
2018-02-10T04:58:06.699Z,89.68
2018-02-10T05:00:34.227Z,90.44
2018-02-10T05:03:01.851Z,90.18
2018-02-10T05:05:29.381Z,89.76
2018-02-10T05:07:57.072Z,90.15
2018-02-10T05:10:24.738Z,89.54
2018-02-10T05:12:52.262Z,89.24
2018-02-10T05:15:19.848Z,90.28
2018-02-10T05:17:47.367Z,90.11
2018-02-10T05:20:14.918Z,89.34
2018-02-10T05:22:42.477Z,89.84
2018-02-10T05:25:10.050Z,89.20
2018-02-10T05:27:37.633Z,90.52
2018-02-10T05:30:05.253Z,90.29
2018-02-10T05:32:32.808Z,90.32
2018-02-10T05:35:00.335Z,90.27
2018-02-10T05:37:27.879Z,90.98
2018-02-10T05:39:55.445Z,90.34
2018-02-10T05:42:22.991Z,90.58
2018-02-10T05:44:50.570Z,90.84
2018-02-10T05:47:18.120Z,90.70
2018-02-10T05:49:45.648Z,90.66
2018-02-10T05:52:13.956Z,89.78
2018-02-10T05:54:41.476Z,89.85
2018-02-10T05:57:09.031Z,90.51
2018-02-10T05:59:36.635Z,90.63
2018-02-10T06:02:04.161Z,90.38
2018-02-10T06:04:31.753Z,90.05
2018-02-10T06:06:59.262Z,89.46
2018-02-10T06:09:26.839Z,89.65
2018-02-10T06:11:54.439Z,90.02
2018-02-10T06:14:22.046Z,90.47
2018-02-10T06:16:49.558Z,89.82
2018-02-10T06:19:17.108Z,90.61
2018-02-10T06:21:44.650Z,90.06
2018-02-10T06:24:12.202Z,88.59
2018-02-10T06:26:39.759Z,89.34
2018-02-10T06:29:07.283Z,89.84
2018-02-10T06:31:34.911Z,90.63
2018-02-10T06:34:02.439Z,89.74
2018-02-10T06:36:30.042Z,90.48
2018-02-10T06:38:57.667Z,90.33
2018-02-10T06:41:25.186Z,90.61
2018-02-10T06:43:52.815Z,90.70
2018-02-10T06:46:20.350Z,90.39
2018-02-10T06:48:47.927Z,90.53
2018-02-10T06:51:15.478Z,90.57
2018-02-10T06:53:43.050Z,90.77
2018-02-10T06:56:10.582Z,90.43
2018-02-10T06:58:38.164Z,90.52
2018-02-10T07:01:05.722Z,90.22
2018-02-10T07:03:33.315Z,90.38
2018-02-10T07:06:00.826Z,90.73
2018-02-10T07:08:28.399Z,90.83
2018-02-10T07:10:55.946Z,90.63
2018-02-10T07:13:23.473Z,90.33
2018-02-10T07:15:51.077Z,90.37
2018-02-10T07:18:18.587Z,89.16
2018-02-10T07:20:46.155Z,89.60
2018-02-10T07:23:14.206Z,89.61
2018-02-10T07:25:41.758Z,90.07
2018-02-10T07:28:09.306Z,89.82
2018-02-10T07:30:36.902Z,88.77
2018-02-10T07:33:04.419Z,89.16
2018-02-10T07:35:31.968Z,89.58
2018-02-10T07:37:59.588Z,89.63
2018-02-10T07:40:27.122Z,88.36
2018-02-10T07:42:54.682Z,89.10
2018-02-10T07:45:22.227Z,88.55
2018-02-10T07:47:49.830Z,88.44
2018-02-10T07:50:17.381Z,88.65
2018-02-10T07:52:44.934Z,88.00
2018-02-10T07:55:12.464Z,87.69
2018-02-10T07:57:40.098Z,86.97
2018-02-10T08:00:07.758Z,88.26
2018-02-10T08:02:35.319Z,87.91
2018-02-10T08:05:02.889Z,88.43
2018-02-10T08:07:30.457Z,87.83
2018-02-10T08:09:58.104Z,88.25
2018-02-10T08:12:25.651Z,87.93
2018-02-10T08:14:53.265Z,87.66
2018-02-10T08:17:20.883Z,87.81
2018-02-10T08:19:50.619Z,87.15
2018-02-10T08:22:18.290Z,87.29
2018-02-10T08:24:45.842Z,86.91
2018-02-10T08:27:13.366Z,86.29
2018-02-10T08:29:40.929Z,86.33
2018-02-10T08:32:08.694Z,86.75
2018-02-10T08:34:36.464Z,86.69
2018-02-10T08:37:04.047Z,86.72
2018-02-10T08:39:31.783Z,86.47
2018-02-10T08:41:59.391Z,87.09
2018-02-10T08:44:26.961Z,86.46
2018-02-10T08:46:57.828Z,88.00
2018-02-10T08:49:25.492Z,87.35
2018-02-10T08:51:55.439Z,87.43
2018-02-10T08:54:22.967Z,87.34
2018-02-10T08:56:50.519Z,87.69
2018-02-10T08:59:18.689Z,87.81
2018-02-10T09:01:46.272Z,87.83
2018-02-10T09:04:14.803Z,87.96
2018-02-10T09:06:42.321Z,87.91
2018-02-10T09:09:09.879Z,87.98
2018-02-10T09:11:37.405Z,87.68
2018-02-10T09:14:04.963Z,88.01
2018-02-10T09:16:34.359Z,88.15
2018-02-10T09:19:03.587Z,87.79
2018-02-10T09:21:31.115Z,88.09
2018-02-10T09:23:58.667Z,88.34
2018-02-10T09:26:26.195Z,87.97
2018-02-10T09:28:53.746Z,87.85
2018-02-10T09:31:21.274Z,88.13
2018-02-10T09:33:48.886Z,88.56
2018-02-10T09:36:16.403Z,88.83
2018-02-10T09:38:44.933Z,89.45
2018-02-10T09:41:13.209Z,88.40
2018-02-10T09:43:40.812Z,86.66
2018-02-10T09:46:08.362Z,87.14
2018-02-10T09:48:35.888Z,86.89
2018-02-10T09:51:03.445Z,86.53
2018-02-10T09:53:43.694Z,87.41
2018-02-10T09:56:11.474Z,87.45
2018-02-10T09:58:39.250Z,86.40
2018-02-10T10:01:06.956Z,86.57
2018-02-10T10:03:34.478Z,86.69
2018-02-10T10:06:03.407Z,86.76
2018-02-10T10:08:31.056Z,86.78
2018-02-10T10:10:58.610Z,86.18
2018-02-10T10:13:27.666Z,86.87
2018-02-10T10:15:55.183Z,85.63
2018-02-10T10:18:22.743Z,85.75
2018-02-10T10:20:50.283Z,85.95
2018-02-10T10:23:17.919Z,85.90
2018-02-10T10:25:45.722Z,86.46
2018-02-10T10:28:13.277Z,85.21
2018-02-10T10:30:40.806Z,86.08
2018-02-10T10:33:08.386Z,85.95
2018-02-10T10:35:36.150Z,85.94
2018-02-10T10:38:04.061Z,85.29
2018-02-10T10:40:32.359Z,85.58
2018-02-10T10:42:59.890Z,85.17
2018-02-10T10:45:27.514Z,85.67
2018-02-10T10:47:55.046Z,86.05
2018-02-10T10:50:22.599Z,85.85
2018-02-10T10:52:50.126Z,85.28
2018-02-10T10:55:17.674Z,85.28
2018-02-10T10:57:45.671Z,86.05
2018-02-10T11:00:13.327Z,88.45
2018-02-10T11:02:41.159Z,85.50
2018-02-10T11:05:08.755Z,85.99
2018-02-10T11:07:37.515Z,86.63
2018-02-10T11:10:05.589Z,86.98
2018-02-10T11:12:33.841Z,87.54
2018-02-10T11:15:01.371Z,87.26
2018-02-10T11:17:28.922Z,87.52
2018-02-10T11:19:58.402Z,87.08
2018-02-10T11:22:26.725Z,87.63
2018-02-10T11:24:54.380Z,88.34
2018-02-10T11:27:24.262Z,88.29
2018-02-10T11:29:51.986Z,88.42
2018-02-10T11:32:19.510Z,88.09
2018-02-10T11:34:47.063Z,88.41
2018-02-10T11:37:14.585Z,88.00
2018-02-10T11:39:42.142Z,88.33
2018-02-10T11:42:09.776Z,88.45
2018-02-10T11:44:37.323Z,87.65
2018-02-10T11:47:04.848Z,87.54
2018-02-10T11:49:32.427Z,88.22
2018-02-10T11:52:00.025Z,88.03
2018-02-10T11:54:27.556Z,87.82
2018-02-10T11:56:55.177Z,87.31
2018-02-10T11:59:22.692Z,87.31
2018-02-10T12:01:52.336Z,87.89
2018-02-10T12:04:21.291Z,87.37
2018-02-10T12:06:50.928Z,86.85
2018-02-10T12:09:18.640Z,87.73
2018-02-10T12:11:46.427Z,87.24
2018-02-10T12:14:13.989Z,87.53
2018-02-10T12:16:42.281Z,87.86
2018-02-10T12:19:10.481Z,87.49
2018-02-10T12:21:38.688Z,86.93
2018-02-10T12:24:08.101Z,86.76
2018-02-10T12:26:39.252Z,87.65
2018-02-10T12:29:07.637Z,87.45
2018-02-10T12:31:35.896Z,87.79
2018-02-10T12:34:05.365Z,87.56
2018-02-10T12:36:34.306Z,86.97
2018-02-10T12:39:02.079Z,87.13
2018-02-10T12:41:30.196Z,87.30
2018-02-10T12:43:58.194Z,87.15
2018-02-10T12:46:28.574Z,87.86
2018-02-10T12:49:03.751Z,87.92
2018-02-10T12:51:33.213Z,87.83
2018-02-10T12:54:02.908Z,87.78
2018-02-10T12:56:30.590Z,88.85
2018-02-10T12:58:58.114Z,87.73
2018-02-10T13:01:26.090Z,88.43
2018-02-10T13:03:53.817Z,87.70
2018-02-10T13:06:21.371Z,87.61
2018-02-10T13:08:49.374Z,87.92
2018-02-10T13:11:21.532Z,88.35
2018-02-10T13:13:50.191Z,88.71
2018-02-10T13:16:17.829Z,88.56
2018-02-10T13:18:45.437Z,88.47
2018-02-10T13:21:12.957Z,88.51
2018-02-10T13:23:40.514Z,89.07
2018-02-10T13:26:09.294Z,88.99
2018-02-10T13:28:45.316Z,89.18
2018-02-10T13:31:14.442Z,89.23
2018-02-10T13:33:44.521Z,89.15
2018-02-10T13:36:17.824Z,89.03
2018-02-10T13:38:50.339Z,87.56
2018-02-10T13:41:22.097Z,87.75
2018-02-10T13:43:52.750Z,87.92
2018-02-10T13:46:22.721Z,88.09
2018-02-10T13:48:53.455Z,87.93
2018-02-10T13:51:23.721Z,87.94
2018-02-10T13:53:54.108Z,88.42
2018-02-10T13:56:24.434Z,88.16
2018-02-10T13:58:53.069Z,87.70
2018-02-10T14:01:23.250Z,87.70
2018-02-10T14:03:53.514Z,88.07
2018-02-10T14:06:24.320Z,87.75
2018-02-10T14:08:54.848Z,87.98
2018-02-10T14:11:25.693Z,87.33
2018-02-10T14:13:56.114Z,87.89
2018-02-10T14:16:23.876Z,87.13
2018-02-10T14:18:51.490Z,87.57
2018-02-10T14:21:21.720Z,87.92
2018-02-10T14:23:50.293Z,87.34
2018-02-10T14:26:18.048Z,87.96
2018-02-10T14:28:45.724Z,87.72
2018-02-10T14:31:13.602Z,87.15
2018-02-10T14:33:41.554Z,87.40
2018-02-10T14:36:09.152Z,87.23
2018-02-10T14:38:36.683Z,87.83
2018-02-10T14:41:04.186Z,87.50
2018-02-10T14:43:31.881Z,87.67
2018-02-10T14:45:59.411Z,87.83
2018-02-10T14:48:26.970Z,87.47
2018-02-10T14:50:54.516Z,87.39
2018-02-10T14:53:22.125Z,87.13
2018-02-10T14:55:49.647Z,87.70
2018-02-10T14:58:17.344Z,87.62
2018-02-10T15:00:44.872Z,88.04
2018-02-10T15:03:12.426Z,87.65
2018-02-10T15:05:39.951Z,87.84
2018-02-10T15:08:07.530Z,87.49
2018-02-10T15:10:35.648Z,88.36
2018-02-10T15:13:03.237Z,88.04
2018-02-10T15:15:30.815Z,88.09
2018-02-10T15:17:58.342Z,87.70
2018-02-10T15:20:25.893Z,88.01
2018-02-10T15:22:53.414Z,88.04
2018-02-10T15:25:20.979Z,87.89
2018-02-10T15:27:48.503Z,88.20
2018-02-10T15:30:27.905Z,87.28
2018-02-10T15:33:07.328Z,88.07
2018-02-10T15:35:34.906Z,88.22
2018-02-10T15:38:02.435Z,87.95
2018-02-10T15:40:29.964Z,87.76
2018-02-10T15:42:57.535Z,87.95
2018-02-10T15:45:25.068Z,88.46
2018-02-10T15:47:53.168Z,88.54
2018-02-10T15:50:20.723Z,88.45
2018-02-10T15:52:48.442Z,88.69
2018-02-10T15:55:15.974Z,88.39
2018-02-10T15:57:46.077Z,88.74
2018-02-10T16:00:15.277Z,87.96
2018-02-10T16:02:42.985Z,88.30
2018-02-10T16:05:10.511Z,87.87
2018-02-10T16:07:38.190Z,87.77
2018-02-10T16:10:05.748Z,87.72
2018-02-10T16:12:35.003Z,87.54
2018-02-10T16:15:02.618Z,87.34
2018-02-10T16:17:30.140Z,87.25
2018-02-10T16:19:57.699Z,87.81
2018-02-10T16:22:25.251Z,87.46
2018-02-10T16:24:52.821Z,87.23
2018-02-10T16:27:20.354Z,87.49
2018-02-10T16:29:48.002Z,87.83
2018-02-10T16:32:15.535Z,87.56
2018-02-10T16:34:43.058Z,87.72
2018-02-10T16:37:10.616Z,87.32
2018-02-10T16:39:38.169Z,87.24
2018-02-10T16:42:05.894Z,86.86
2018-02-10T16:44:33.422Z,86.93
2018-02-10T16:47:02.482Z,86.96
2018-02-10T16:49:30.562Z,86.62
2018-02-10T16:51:58.131Z,86.86
2018-02-10T16:54:25.832Z,86.75
2018-02-10T16:56:54.436Z,86.49
2018-02-10T16:59:22.701Z,87.17
2018-02-10T17:01:50.413Z,86.11
2018-02-10T17:04:17.969Z,85.81
2018-02-10T17:06:46.018Z,86.47
2018-02-10T17:09:13.619Z,86.02
2018-02-10T17:11:41.144Z,85.85
2018-02-10T17:14:08.670Z,85.25
2018-02-10T17:16:36.822Z,84.69
2018-02-10T17:19:06.131Z,84.62
2018-02-10T17:21:34.705Z,84.19
2018-02-10T17:24:03.877Z,84.53
2018-02-10T17:26:32.669Z,83.83
2018-02-10T17:29:04.012Z,83.09
2018-02-10T17:31:31.859Z,83.06
2018-02-10T17:33:59.770Z,82.61
2018-02-10T17:36:27.393Z,81.88
2018-02-10T17:38:55.033Z,82.90
2018-02-10T17:41:24.373Z,82.07
2018-02-10T17:43:56.199Z,81.74
2018-02-10T17:46:27.618Z,82.10
2018-02-10T17:48:57.303Z,81.74
2018-02-10T17:51:27.834Z,82.10
2018-02-10T17:53:59.734Z,82.17
2018-02-10T17:56:29.588Z,82.23
2018-02-10T17:58:57.539Z,83.02
2018-02-10T18:01:25.142Z,82.58
2018-02-10T18:03:52.797Z,82.26
2018-02-10T18:06:20.746Z,83.04
2018-02-10T18:08:49.201Z,83.26
2018-02-10T18:11:16.874Z,82.91
2018-02-10T18:13:45.077Z,82.48
2018-02-10T18:16:12.731Z,82.44
2018-02-10T18:18:40.857Z,82.27
2018-02-10T18:21:08.419Z,81.92
2018-02-10T18:23:36.084Z,81.79
2018-02-10T18:26:03.837Z,81.63
2018-02-10T18:28:31.411Z,81.69
2018-02-10T18:30:59.039Z,81.62
2018-02-10T18:33:26.988Z,81.43
2018-02-10T18:35:54.878Z,81.28
2018-02-10T18:38:22.553Z,82.00
2018-02-10T18:40:50.330Z,82.44
2018-02-10T18:43:18.829Z,82.31
2018-02-10T18:45:46.407Z,82.27
2018-02-10T18:48:13.933Z,82.33
2018-02-10T18:50:41.463Z,83.17
2018-02-10T18:53:09.015Z,83.42
2018-02-10T18:55:36.540Z,83.59
2018-02-10T18:58:05.821Z,83.15
2018-02-10T19:00:33.348Z,83.14
2018-02-10T19:03:00.925Z,83.17
2018-02-10T19:05:28.449Z,83.19
2018-02-10T19:07:56.005Z,82.93
2018-02-10T19:10:23.555Z,82.76
2018-02-10T19:12:54.308Z,82.99
2018-02-10T19:15:22.158Z,83.26
2018-02-10T19:17:49.987Z,82.72
2018-02-10T19:20:17.631Z,82.76
2018-02-10T19:22:45.977Z,82.70
2018-02-10T19:25:13.913Z,82.50
2018-02-10T19:27:41.447Z,82.59
2018-02-10T19:30:08.998Z,82.69
2018-02-10T19:32:36.525Z,82.98
2018-02-10T19:35:04.079Z,83.24
2018-02-10T19:37:31.630Z,83.30
2018-02-10T19:39:59.181Z,83.39
2018-02-10T19:42:27.399Z,83.53
2018-02-10T19:44:56.934Z,83.35
2018-02-10T19:47:30.487Z,83.67
2018-02-10T19:49:58.989Z,83.30
2018-02-10T19:52:29.706Z,83.28
2018-02-10T19:54:58.765Z,83.19
2018-02-10T19:57:27.049Z,83.02
2018-02-10T19:59:55.419Z,83.05
2018-02-10T20:02:25.933Z,82.98
2018-02-10T20:04:55.600Z,82.94
2018-02-10T20:07:25.116Z,82.99
2018-02-10T20:09:57.534Z,82.85
2018-02-10T20:12:29.627Z,82.38
2018-02-10T20:15:01.062Z,82.43
2018-02-10T20:17:28.843Z,82.75
2018-02-10T20:19:56.400Z,82.79
2018-02-10T20:22:27.607Z,82.64
2018-02-10T20:24:57.798Z,83.20
2018-02-10T20:30:00.680Z,83.18
2018-02-10T20:32:29.549Z,83.20
2018-02-10T20:35:03.124Z,83.34
2018-02-10T20:37:36.204Z,83.02
2018-02-10T20:40:06.336Z,83.05
2018-02-10T20:42:38.999Z,83.17
2018-02-10T20:45:08.552Z,83.91
2018-02-10T20:47:46.170Z,83.25
2018-02-10T20:50:17.323Z,83.68
2018-02-10T20:52:47.369Z,83.65
2018-02-10T20:55:16.250Z,84.07
2018-02-10T20:57:51.022Z,84.68
2018-02-10T21:00:23.300Z,84.82
2018-02-10T21:02:54.082Z,84.60
2018-02-10T21:05:24.016Z,84.66
2018-02-10T21:07:52.186Z,83.94
2018-02-10T21:10:26.151Z,84.58
2018-02-10T21:12:56.863Z,84.42
2018-02-10T21:15:29.444Z,84.90
2018-02-10T21:20:34.489Z,84.82
2018-02-10T21:23:04.085Z,85.64
2018-02-10T21:25:37.694Z,84.56
2018-02-10T21:28:17.475Z,85.88
2018-02-10T21:30:48.382Z,84.84
2018-02-10T21:33:15.936Z,84.36
2018-02-10T21:35:45.180Z,84.41
2018-02-10T21:38:12.984Z,84.22
2018-02-10T21:40:41.347Z,84.58
2018-02-10T21:43:12.185Z,84.90
2018-02-10T21:45:42.509Z,84.35
2018-02-10T21:48:13.466Z,85.31
2018-02-10T21:50:46.320Z,85.01
2018-02-10T21:53:18.418Z,85.95
2018-02-10T21:55:53.817Z,85.06
2018-02-10T21:58:24.059Z,85.26
2018-02-10T22:00:53.605Z,86.32
2018-02-10T22:03:22.391Z,85.76
2018-02-10T22:05:51.189Z,86.30
2018-02-10T22:08:19.418Z,86.03
2018-02-10T22:10:49.325Z,85.52
2018-02-10T22:13:18.832Z,87.04
2018-02-10T22:15:48.947Z,86.26
2018-02-10T22:18:19.148Z,85.79
2018-02-10T22:20:48.524Z,87.41
2018-02-10T22:23:18.911Z,87.73
2018-02-10T22:25:46.611Z,87.10
2018-02-10T22:28:14.151Z,85.85
2018-02-10T22:30:41.886Z,86.48
2018-02-10T22:33:09.788Z,85.78
2018-02-10T22:35:37.318Z,85.26
2018-02-10T22:38:06.016Z,86.80
2018-02-10T22:40:34.189Z,86.65
2018-02-10T22:43:04.212Z,86.48
2018-02-10T22:45:34.367Z,86.07
2018-02-10T22:48:06.666Z,86.10
2018-02-10T22:50:36.172Z,86.23
2018-02-10T22:53:04.003Z,86.37
2018-02-10T22:55:32.255Z,85.74
2018-02-10T22:58:01.757Z,85.55
2018-02-10T23:00:30.178Z,84.98
2018-02-10T23:02:57.872Z,85.14
2018-02-10T23:05:25.795Z,84.89
2018-02-10T23:07:53.370Z,84.41
2018-02-10T23:10:20.976Z,84.44
2018-02-10T23:12:48.530Z,84.90
2018-02-10T23:15:19.893Z,84.47
2018-02-10T23:17:47.731Z,84.35
2018-02-10T23:20:15.306Z,84.24
2018-02-10T23:22:42.830Z,85.09
2018-02-10T23:25:10.419Z,85.39
2018-02-10T23:27:38.062Z,84.89
2018-02-10T23:30:05.619Z,85.07
2018-02-10T23:32:33.147Z,84.62
2018-02-10T23:35:00.695Z,84.63
2018-02-10T23:37:28.288Z,85.56
2018-02-10T23:39:55.914Z,84.34
2018-02-10T23:42:23.478Z,83.68
2018-02-10T23:44:53.263Z,84.06
2018-02-10T23:47:21.007Z,84.41
2018-02-10T23:49:49.457Z,84.99
2018-02-10T23:52:18.208Z,84.78
2018-02-10T23:54:45.815Z,84.08
2018-02-10T23:57:13.746Z,83.72
2018-02-10T23:59:41.842Z,83.65
